createdAt,value
2017-10-10T00:00:44.947Z,8.37
2017-10-10T00:03:12.211Z,11.87
2017-10-10T00:05:39.500Z,9.90
2017-10-10T00:08:06.776Z,13.60
2017-10-10T00:10:34.063Z,8.80
2017-10-10T00:13:01.378Z,11.83
2017-10-10T00:15:28.642Z,11.40
2017-10-10T00:17:55.910Z,15.37
2017-10-10T00:20:23.247Z,11.63
2017-10-10T00:22:51.196Z,17.03
2017-10-10T00:25:18.459Z,8.83
2017-10-10T00:27:45.823Z,15.83
2017-10-10T00:30:13.135Z,11.23
2017-10-10T00:32:40.456Z,16.97
2017-10-10T00:35:07.754Z,9.30
2017-10-10T00:37:35.036Z,11.40
2017-10-10T00:40:02.327Z,11.97
2017-10-10T00:42:29.640Z,11.00
2017-10-10T00:44:56.903Z,14.00
2017-10-10T00:47:24.169Z,15.20
2017-10-10T00:49:51.488Z,13.70
2017-10-10T00:52:18.759Z,10.67
2017-10-10T00:54:46.028Z,11.87
2017-10-10T00:57:13.327Z,9.53
2017-10-10T00:59:40.579Z,9.50
2017-10-10T01:02:07.844Z,16.33
2017-10-10T01:04:35.134Z,10.37
2017-10-10T01:07:02.399Z,13.63
2017-10-10T01:09:29.686Z,9.57
2017-10-10T01:11:56.952Z,11.50
2017-10-10T01:14:24.353Z,10.40
2017-10-10T01:16:51.614Z,11.37
2017-10-10T01:19:18.890Z,10.97
2017-10-10T01:21:46.192Z,12.83
2017-10-10T01:24:13.491Z,14.83
2017-10-10T01:26:40.759Z,10.00
2017-10-10T01:29:08.090Z,12.80
2017-10-10T01:31:35.357Z,13.03
2017-10-10T01:34:02.627Z,9.30
2017-10-10T01:36:29.936Z,15.03
2017-10-10T01:38:57.216Z,12.13
2017-10-10T01:41:24.531Z,17.90
2017-10-10T01:43:51.859Z,14.77
2017-10-10T01:46:19.152Z,13.73
2017-10-10T01:48:46.418Z,15.00
2017-10-10T01:51:13.759Z,14.10
2017-10-10T01:53:41.057Z,15.00
2017-10-10T01:56:08.394Z,11.63
2017-10-10T01:58:35.712Z,15.60
2017-10-10T02:01:03.027Z,20.37
2017-10-10T02:03:30.327Z,13.77
2017-10-10T02:05:57.661Z,15.23
2017-10-10T02:08:24.958Z,13.37
2017-10-10T02:10:52.249Z,14.60
2017-10-10T02:13:19.559Z,13.73
2017-10-10T02:15:46.873Z,13.20
2017-10-10T02:18:14.138Z,15.30
2017-10-10T02:20:41.435Z,15.30
2017-10-10T02:23:08.731Z,13.17
2017-10-10T02:25:36.044Z,13.87
2017-10-10T02:28:03.337Z,17.63
2017-10-10T02:30:30.636Z,16.70
2017-10-10T02:32:57.921Z,18.43
2017-10-10T02:35:25.260Z,14.57
2017-10-10T02:37:52.558Z,15.17
2017-10-10T02:40:19.876Z,18.40
2017-10-10T02:42:47.187Z,20.27
2017-10-10T02:45:14.469Z,19.97
2017-10-10T02:47:41.805Z,16.43
2017-10-10T02:50:09.097Z,16.20
2017-10-10T02:52:37.226Z,24.23
2017-10-10T02:55:04.571Z,14.47
2017-10-10T02:57:31.948Z,16.77
2017-10-10T02:59:59.238Z,16.50
2017-10-10T03:02:26.576Z,12.83
2017-10-10T03:04:53.861Z,19.27
2017-10-10T03:07:21.225Z,19.33
2017-10-10T03:09:48.547Z,20.60
2017-10-10T03:12:15.839Z,17.93
2017-10-10T03:14:43.132Z,18.60
2017-10-10T03:17:10.417Z,15.60
2017-10-10T03:19:37.713Z,21.37
2017-10-10T03:22:05.003Z,18.80
2017-10-10T03:24:32.295Z,16.17
2017-10-10T03:26:59.564Z,18.03
2017-10-10T03:29:26.878Z,24.43
2017-10-10T03:31:54.159Z,18.90
2017-10-10T03:34:21.464Z,16.83
2017-10-10T03:36:48.758Z,19.20
2017-10-10T03:39:16.075Z,23.13
2017-10-10T03:41:43.350Z,15.53
2017-10-10T03:44:10.674Z,22.37
2017-10-10T03:46:37.981Z,20.53
2017-10-10T03:49:05.321Z,22.70
2017-10-10T03:51:32.606Z,17.13
2017-10-10T03:53:59.911Z,26.00
2017-10-10T03:56:27.218Z,20.87
2017-10-10T03:58:54.540Z,24.03
2017-10-10T04:01:21.835Z,21.70
2017-10-10T04:03:49.194Z,17.03
2017-10-10T04:06:16.481Z,18.23
2017-10-10T04:08:43.771Z,24.17
2017-10-10T04:11:11.075Z,19.30
2017-10-10T04:13:38.367Z,23.87
2017-10-10T04:16:05.666Z,20.53
2017-10-10T04:18:32.939Z,20.33
2017-10-10T04:21:00.272Z,17.00
2017-10-10T04:23:27.542Z,20.50
2017-10-10T04:25:54.842Z,20.40
2017-10-10T04:28:22.120Z,21.20
2017-10-10T04:30:49.417Z,19.73
2017-10-10T04:33:16.704Z,22.33
2017-10-10T04:35:44.844Z,21.20
2017-10-10T04:38:12.114Z,20.40
2017-10-10T04:40:39.412Z,21.67
2017-10-10T04:43:06.706Z,19.17
2017-10-10T04:45:34.007Z,20.47
2017-10-10T04:48:01.301Z,23.53
2017-10-10T04:50:28.605Z,21.10
2017-10-10T04:52:55.916Z,18.70
2017-10-10T04:55:23.202Z,24.63
2017-10-10T04:57:50.503Z,20.10
2017-10-10T05:00:17.783Z,22.17
2017-10-10T05:02:45.071Z,28.20
2017-10-10T05:05:12.343Z,22.40
2017-10-10T05:07:39.677Z,25.97
2017-10-10T05:10:06.935Z,18.70
2017-10-10T05:12:34.243Z,23.00
2017-10-10T05:15:01.512Z,23.77
2017-10-10T05:17:28.809Z,25.30
2017-10-10T05:19:56.080Z,25.50
2017-10-10T05:22:23.392Z,25.00
2017-10-10T05:24:51.105Z,22.10
2017-10-10T05:27:18.612Z,21.37
2017-10-10T05:29:45.896Z,22.77
2017-10-10T05:32:13.174Z,25.02
2017-10-10T05:34:40.478Z,21.87
2017-10-10T05:37:07.747Z,20.90
2017-10-10T05:39:35.083Z,21.70
2017-10-10T05:42:02.357Z,23.20
2017-10-10T05:44:29.658Z,25.33
2017-10-10T05:46:56.952Z,24.37
2017-10-10T05:49:24.259Z,32.60
2017-10-10T05:51:51.536Z,20.87
2017-10-10T05:54:18.807Z,28.93
2017-10-10T05:56:46.128Z,22.60
2017-10-10T05:59:13.394Z,29.67
2017-10-10T06:01:40.671Z,28.63
2017-10-10T06:04:07.963Z,25.50
2017-10-10T06:06:35.236Z,32.53
2017-10-10T06:09:02.555Z,21.93
2017-10-10T06:11:29.816Z,26.37
2017-10-10T06:13:57.084Z,28.37
2017-10-10T06:16:24.378Z,30.67
2017-10-10T06:18:51.672Z,26.33
2017-10-10T06:21:18.948Z,27.67
2017-10-10T06:23:46.243Z,24.80
2017-10-10T06:26:13.514Z,30.30
2017-10-10T06:28:40.827Z,25.63
2017-10-10T06:31:08.094Z,31.30
2017-10-10T06:33:35.362Z,25.10
2017-10-10T06:36:02.662Z,28.30
2017-10-10T06:38:30.360Z,32.43
2017-10-10T06:40:57.711Z,23.60
2017-10-10T06:43:24.997Z,26.03
2017-10-10T06:45:52.259Z,31.00
2017-10-10T06:48:19.568Z,24.67
2017-10-10T06:50:46.836Z,23.20
2017-10-10T06:53:14.175Z,24.57
2017-10-10T06:55:41.442Z,24.50
2017-10-10T06:58:08.759Z,24.37
2017-10-10T07:00:36.024Z,25.90
2017-10-10T07:03:03.301Z,20.07
2017-10-10T07:05:30.601Z,18.97
2017-10-10T07:07:57.870Z,27.10
2017-10-10T07:10:25.144Z,25.07
2017-10-10T07:12:52.442Z,22.80
2017-10-10T07:15:19.715Z,20.33
2017-10-10T07:17:47.013Z,22.57
2017-10-10T07:20:14.475Z,16.80
2017-10-10T07:22:41.778Z,14.27
2017-10-10T07:25:09.043Z,18.23
2017-10-10T07:27:36.335Z,12.43
2017-10-10T07:30:03.642Z,12.47
2017-10-10T07:32:30.915Z,10.60
2017-10-10T07:34:58.174Z,10.87
2017-10-10T07:37:25.467Z,9.80
2017-10-10T07:39:52.732Z,9.23
2017-10-10T07:42:20.031Z,11.33
2017-10-10T07:44:47.300Z,10.60
2017-10-10T07:47:14.569Z,11.77
2017-10-10T07:49:41.860Z,11.67
2017-10-10T07:52:09.135Z,10.83
2017-10-10T07:54:36.434Z,9.53
2017-10-10T07:57:03.703Z,13.20
2017-10-10T07:59:30.971Z,10.30
2017-10-10T08:01:58.263Z,10.73
2017-10-10T08:04:25.528Z,12.80
2017-10-10T08:06:52.833Z,12.33
2017-10-10T08:09:20.095Z,12.63
2017-10-10T08:11:47.355Z,9.23
2017-10-10T08:14:14.662Z,11.60
2017-10-10T08:16:41.936Z,15.50
2017-10-10T08:19:09.207Z,10.50
2017-10-10T08:21:36.513Z,15.37
2017-10-10T08:24:03.771Z,9.97
2017-10-10T08:26:31.027Z,9.97
2017-10-10T08:28:58.324Z,8.57
2017-10-10T08:31:25.585Z,8.10
2017-10-10T08:33:52.843Z,8.20
2017-10-10T08:36:20.136Z,8.37
2017-10-10T08:38:47.400Z,7.40
2017-10-10T08:41:14.662Z,7.33
2017-10-10T08:43:41.933Z,6.83
2017-10-10T08:46:09.227Z,7.37
2017-10-10T08:48:36.511Z,8.10
2017-10-10T08:51:03.763Z,7.77
2017-10-10T08:53:31.066Z,8.03
2017-10-10T08:55:58.319Z,6.43
2017-10-10T08:58:25.581Z,6.80
2017-10-10T09:00:52.864Z,8.43
2017-10-10T09:03:20.147Z,6.70
2017-10-10T09:05:47.455Z,7.17
2017-10-10T09:08:14.719Z,6.97
2017-10-10T09:10:41.988Z,7.17
2017-10-10T09:13:09.267Z,9.17
2017-10-10T09:15:36.533Z,6.60
2017-10-10T09:18:03.791Z,6.70
2017-10-10T09:20:31.091Z,6.40
2017-10-10T09:22:58.352Z,7.03
2017-10-10T09:25:25.611Z,13.43
2017-10-10T09:27:52.905Z,11.27
2017-10-10T09:30:20.178Z,7.83
2017-10-10T09:32:47.475Z,7.13
2017-10-10T09:35:14.742Z,10.97
2017-10-10T09:37:42.007Z,6.60
2017-10-10T09:40:09.288Z,8.87
2017-10-10T09:42:36.546Z,9.27
2017-10-10T09:45:03.851Z,6.23
2017-10-10T09:47:31.086Z,5.57
2017-10-10T09:49:58.391Z,8.50
2017-10-10T09:52:25.661Z,15.53
2017-10-10T09:54:52.920Z,6.33
2017-10-10T09:57:20.212Z,7.10
2017-10-10T09:59:47.492Z,5.30
2017-10-10T10:02:14.782Z,5.73
2017-10-10T10:04:42.072Z,5.47
2017-10-10T10:07:09.351Z,4.80
2017-10-10T10:09:36.635Z,5.90
2017-10-10T10:12:03.892Z,8.60
2017-10-10T10:14:31.183Z,6.83
2017-10-10T10:16:58.445Z,7.03
2017-10-10T10:19:25.696Z,4.70
2017-10-10T10:21:52.991Z,5.13
2017-10-10T10:24:20.243Z,4.50
2017-10-10T10:26:47.511Z,6.07
2017-10-10T10:29:14.792Z,4.90
2017-10-10T10:31:42.050Z,4.60
2017-10-10T10:34:09.336Z,7.67
2017-10-10T10:36:36.594Z,4.40
2017-10-10T10:39:03.871Z,4.00
2017-10-10T10:41:31.159Z,3.80
2017-10-10T10:43:58.420Z,6.13
2017-10-10T10:46:25.717Z,5.77
2017-10-10T10:48:52.984Z,4.87
2017-10-10T10:51:20.240Z,5.50
2017-10-10T10:53:47.518Z,5.50
2017-10-10T10:56:14.775Z,4.17
2017-10-10T10:58:42.060Z,8.30
2017-10-10T11:01:09.348Z,4.33
2017-10-10T11:03:36.606Z,4.60
2017-10-10T11:06:03.897Z,6.83
2017-10-10T11:08:31.151Z,4.27
2017-10-10T11:10:58.439Z,4.47
2017-10-10T11:13:25.730Z,10.00
2017-10-10T11:15:52.995Z,5.17
2017-10-10T11:18:20.251Z,3.93
2017-10-10T11:20:47.545Z,3.10
2017-10-10T11:23:14.808Z,4.83
2017-10-10T11:25:42.092Z,2.63
2017-10-10T11:28:09.394Z,2.83
2017-10-10T11:30:36.670Z,5.20
2017-10-10T11:33:03.935Z,2.60
2017-10-10T11:35:31.227Z,2.50
2017-10-10T11:37:58.508Z,2.50
2017-10-10T11:40:25.807Z,3.07
2017-10-10T11:42:53.136Z,2.10
2017-10-10T11:45:20.394Z,2.10
2017-10-10T11:47:47.744Z,2.20
2017-10-10T11:50:15.027Z,5.00
2017-10-10T11:52:42.327Z,3.60
2017-10-10T11:55:09.595Z,1.50
2017-10-10T11:57:36.903Z,1.80
2017-10-10T12:00:04.188Z,5.03
2017-10-10T12:02:31.431Z,3.17
2017-10-10T12:04:58.722Z,2.07
2017-10-10T12:07:26.010Z,3.60
2017-10-10T12:09:53.270Z,3.60
2017-10-10T12:12:20.548Z,2.53
2017-10-10T12:14:47.847Z,2.10
2017-10-10T12:17:15.123Z,2.50
2017-10-10T12:19:42.411Z,2.10
2017-10-10T12:22:09.674Z,5.67
2017-10-10T12:24:36.947Z,4.43
2017-10-10T12:27:04.246Z,3.40
2017-10-10T12:29:31.528Z,2.30
2017-10-10T12:31:58.827Z,3.90
2017-10-10T12:34:26.080Z,2.20
2017-10-10T12:36:53.363Z,2.87
2017-10-10T12:39:20.658Z,5.03
2017-10-10T12:41:47.922Z,4.40
2017-10-10T12:44:15.227Z,3.37
2017-10-10T12:46:42.501Z,2.07
2017-10-10T12:49:09.777Z,4.33
2017-10-10T12:51:37.059Z,3.23
2017-10-10T12:54:04.315Z,2.63
2017-10-10T12:56:31.627Z,2.43
2017-10-10T12:58:58.896Z,3.00
2017-10-10T13:01:26.293Z,1.93
2017-10-10T13:03:53.535Z,2.50
2017-10-10T13:06:20.843Z,3.30
2017-10-10T13:08:48.156Z,3.97
2017-10-10T13:11:15.519Z,4.73
2017-10-10T13:13:42.804Z,3.30
2017-10-10T13:16:10.062Z,2.83
2017-10-10T13:18:37.345Z,5.33
2017-10-10T13:21:04.604Z,3.10
2017-10-10T13:23:31.899Z,3.43
2017-10-10T13:25:59.183Z,3.03
2017-10-10T13:28:26.454Z,9.07
2017-10-10T13:30:53.778Z,4.17
2017-10-10T13:33:21.040Z,2.43
2017-10-10T13:35:48.304Z,3.10
2017-10-10T13:38:15.591Z,3.13
2017-10-10T13:40:42.880Z,3.20
2017-10-10T13:43:10.162Z,4.60
2017-10-10T13:45:37.470Z,3.07
2017-10-10T13:48:04.754Z,5.37
2017-10-10T13:50:32.382Z,4.10
2017-10-10T13:52:59.647Z,4.73
2017-10-10T13:55:26.982Z,4.53
2017-10-10T13:57:54.285Z,12.47
2017-10-10T14:00:21.547Z,3.83
2017-10-10T14:02:48.859Z,5.20
2017-10-10T14:05:16.116Z,3.57
2017-10-10T14:07:43.375Z,3.10
2017-10-10T14:10:10.663Z,3.27
2017-10-10T14:12:37.931Z,2.97
2017-10-10T14:15:05.420Z,3.50
2017-10-10T14:17:32.706Z,4.80
2017-10-10T14:19:59.999Z,5.07
2017-10-10T14:22:27.259Z,3.03
2017-10-10T14:24:54.526Z,3.80
2017-10-10T14:27:21.843Z,7.13
2017-10-10T14:29:49.095Z,3.40
2017-10-10T14:32:16.346Z,2.93
2017-10-10T14:34:43.650Z,4.87
2017-10-10T14:37:10.916Z,5.00
2017-10-10T14:39:38.179Z,3.70
2017-10-10T14:42:05.490Z,5.33
2017-10-10T14:44:32.748Z,3.60
2017-10-10T14:47:00.011Z,6.63
2017-10-10T14:49:27.298Z,4.33
2017-10-10T14:51:54.564Z,2.30
2017-10-10T14:54:21.871Z,4.57
2017-10-10T14:56:49.131Z,3.93
2017-10-10T14:59:16.400Z,4.83
2017-10-10T15:01:43.691Z,2.80
2017-10-10T15:04:10.984Z,5.33
2017-10-10T15:06:38.267Z,5.20
2017-10-10T15:09:05.535Z,4.70
2017-10-10T15:11:32.828Z,2.57
2017-10-10T15:14:00.111Z,6.03
2017-10-10T15:16:27.412Z,2.50
2017-10-10T15:18:54.670Z,2.70
2017-10-10T15:21:21.933Z,8.13
2017-10-10T15:23:49.225Z,3.40
2017-10-10T15:26:16.491Z,4.10
2017-10-10T15:28:43.762Z,11.13
2017-10-10T15:31:11.042Z,4.83
2017-10-10T15:33:38.307Z,7.43
2017-10-10T15:36:05.596Z,5.70
2017-10-10T15:38:32.863Z,3.57
2017-10-10T15:41:00.163Z,4.63
2017-10-10T15:43:27.461Z,2.40
2017-10-10T15:45:54.704Z,2.30
2017-10-10T15:48:22.009Z,3.47
2017-10-10T15:50:49.304Z,3.93
2017-10-10T15:53:16.592Z,2.50
2017-10-10T15:55:43.882Z,5.70
2017-10-10T15:58:11.147Z,6.50
2017-10-10T16:00:38.437Z,3.30
2017-10-10T16:03:05.744Z,9.03
2017-10-10T16:05:33.036Z,5.70
2017-10-10T16:08:00.293Z,4.20
2017-10-10T16:10:27.586Z,4.20
2017-10-10T16:12:54.846Z,4.83
2017-10-10T16:15:22.131Z,5.83
2017-10-10T16:17:49.406Z,2.60
2017-10-10T16:20:16.714Z,3.40
2017-10-10T16:22:43.971Z,5.20
2017-10-10T16:25:11.239Z,4.37
2017-10-10T16:27:38.540Z,2.57
2017-10-10T16:30:05.819Z,5.60
2017-10-10T16:32:33.110Z,3.60
2017-10-10T16:35:00.374Z,6.50
2017-10-10T16:37:27.647Z,5.43
2017-10-10T16:39:54.944Z,4.03
2017-10-10T16:42:22.213Z,7.27
2017-10-10T16:44:49.516Z,3.87
2017-10-10T16:47:16.773Z,3.00
2017-10-10T16:49:44.031Z,3.73
2017-10-10T16:52:11.337Z,3.97
2017-10-10T16:54:38.609Z,6.47
2017-10-10T16:57:05.875Z,10.37
2017-10-10T16:59:33.166Z,3.33
2017-10-10T17:02:00.428Z,6.30
2017-10-10T17:04:27.731Z,4.40
2017-10-10T17:06:54.999Z,3.53
2017-10-10T17:09:22.258Z,3.20
2017-10-10T17:11:49.547Z,3.70
2017-10-10T17:14:16.821Z,4.20
2017-10-10T17:16:44.099Z,6.20
2017-10-10T17:19:11.407Z,4.07
2017-10-10T17:21:38.674Z,6.33
2017-10-10T17:24:05.955Z,5.23
2017-10-10T17:26:33.214Z,3.47
2017-10-10T17:31:34.098Z,7.00
2017-10-10T17:34:01.378Z,7.53
2017-10-10T17:36:28.666Z,5.47
2017-10-10T17:38:55.957Z,5.03
2017-10-10T17:41:23.252Z,9.33
2017-10-10T17:43:50.504Z,3.83
2017-10-10T17:46:17.764Z,7.20
2017-10-10T17:48:45.043Z,3.57
2017-10-10T17:51:12.345Z,6.20
2017-10-10T17:53:39.600Z,7.50
2017-10-10T17:56:06.893Z,9.10
2017-10-10T17:58:34.179Z,6.43
2017-10-10T18:01:01.481Z,6.40
2017-10-10T18:03:28.739Z,11.40
2017-10-10T18:05:56.016Z,7.00
2017-10-10T18:08:23.310Z,5.87
2017-10-10T18:10:50.563Z,4.90
2017-10-10T18:13:17.858Z,4.90
2017-10-10T18:15:45.135Z,6.50
2017-10-10T18:18:12.402Z,5.10
2017-10-10T18:20:39.698Z,5.10
2017-10-10T18:23:06.960Z,4.80
2017-10-10T18:25:34.215Z,4.83
2017-10-10T18:28:01.505Z,6.87
2017-10-10T18:30:28.799Z,4.27
2017-10-10T18:32:56.287Z,4.43
2017-10-10T18:35:23.540Z,5.50
2017-10-10T18:37:50.839Z,4.57
2017-10-10T18:40:18.106Z,5.87
2017-10-10T18:42:45.363Z,8.37
2017-10-10T18:45:12.642Z,8.60
2017-10-10T18:47:39.927Z,4.30
2017-10-10T18:50:07.187Z,8.90
2017-10-10T18:52:34.463Z,5.00
2017-10-10T18:55:01.751Z,6.33
2017-10-10T18:57:29.011Z,6.40
2017-10-10T18:59:56.290Z,6.73
2017-10-10T19:02:23.552Z,5.30
2017-10-10T19:04:50.838Z,5.67
2017-10-10T19:07:18.094Z,5.03
2017-10-10T19:09:45.387Z,5.53
2017-10-10T19:12:12.674Z,6.40
2017-10-10T19:14:39.930Z,5.37
2017-10-10T19:17:07.227Z,11.00
2017-10-10T19:19:34.488Z,6.80
2017-10-10T19:22:01.784Z,6.53
2017-10-10T19:24:29.034Z,5.77
2017-10-10T19:26:56.298Z,5.47
2017-10-10T19:29:23.583Z,7.80
2017-10-10T19:31:50.842Z,6.80
2017-10-10T19:34:18.138Z,5.97
2017-10-10T19:36:45.387Z,9.53
2017-10-10T19:39:12.691Z,9.20
2017-10-10T19:41:39.957Z,7.70
2017-10-10T19:44:07.218Z,6.40
2017-10-10T19:46:34.508Z,6.40
2017-10-10T19:49:01.799Z,9.43
2017-10-10T19:51:29.071Z,12.53
2017-10-10T19:53:56.369Z,6.23
2017-10-10T19:56:23.625Z,9.40
2017-10-10T19:58:50.922Z,9.10
2017-10-10T20:01:18.182Z,17.47
2017-10-10T20:03:45.448Z,9.00
2017-10-10T20:06:12.731Z,7.50
2017-10-10T20:08:39.998Z,7.40
2017-10-10T20:11:07.301Z,11.20
2017-10-10T20:13:34.582Z,7.70
2017-10-10T20:16:01.872Z,6.80
2017-10-10T20:18:29.130Z,8.13
2017-10-10T20:20:56.423Z,11.93
2017-10-10T20:23:23.686Z,5.93
2017-10-10T20:25:50.970Z,9.20
2017-10-10T20:28:18.235Z,9.63
2017-10-10T20:30:45.492Z,7.93
2017-10-10T20:33:12.802Z,7.40
2017-10-10T20:35:40.050Z,7.53
2017-10-10T20:38:07.306Z,7.33
2017-10-10T20:40:34.595Z,10.27
2017-10-10T20:43:01.895Z,8.60
2017-10-10T20:45:29.146Z,6.20
2017-10-10T20:47:56.412Z,9.40
2017-10-10T20:50:23.698Z,8.10
2017-10-10T20:52:51.001Z,12.23
2017-10-10T20:55:18.434Z,8.33
2017-10-10T20:57:45.709Z,10.50
2017-10-10T21:00:13.008Z,7.23
2017-10-10T21:02:40.265Z,12.90
2017-10-10T21:05:07.547Z,13.10
2017-10-10T21:07:34.973Z,7.97
2017-10-10T21:10:03.194Z,13.23
2017-10-10T21:12:31.086Z,8.33
2017-10-10T21:14:58.837Z,10.03
2017-10-10T21:17:26.527Z,11.97
2017-10-10T21:19:53.835Z,8.87
2017-10-10T21:22:21.092Z,9.13
2017-10-10T21:24:48.374Z,9.10
2017-10-10T21:27:15.639Z,8.37
2017-10-10T21:29:42.928Z,8.40
2017-10-10T21:32:10.189Z,10.37
2017-10-10T21:34:37.491Z,9.63
2017-10-10T21:37:04.755Z,8.60
2017-10-10T21:39:32.016Z,7.60
2017-10-10T21:41:59.303Z,11.37
2017-10-10T21:44:26.594Z,9.23
2017-10-10T21:46:53.890Z,11.63
2017-10-10T21:49:21.155Z,10.03
2017-10-10T21:51:48.412Z,7.83
2017-10-10T21:54:15.731Z,7.57
2017-10-10T21:56:42.999Z,11.00
2017-10-10T21:59:10.263Z,9.03
2017-10-10T22:01:37.551Z,9.90
2017-10-10T22:04:04.839Z,12.43
2017-10-10T22:06:32.140Z,14.20
2017-10-10T22:08:59.394Z,8.97
2017-10-10T22:11:26.683Z,8.00
2017-10-10T22:13:53.979Z,10.93
2017-10-10T22:16:21.238Z,8.87
2017-10-10T22:18:48.539Z,8.30
2017-10-10T22:21:15.807Z,11.83
2017-10-10T22:23:43.067Z,7.97
2017-10-10T22:26:10.360Z,9.90
2017-10-10T22:28:37.659Z,8.10
2017-10-10T22:31:04.923Z,8.30
2017-10-10T22:33:32.187Z,15.70
2017-10-10T22:35:59.483Z,9.63
2017-10-10T22:38:26.757Z,9.70
2017-10-10T22:40:54.016Z,12.63
2017-10-10T22:43:21.307Z,10.13
2017-10-10T22:45:48.576Z,9.23
2017-10-10T22:48:15.843Z,21.30
2017-10-10T22:50:43.137Z,8.27
2017-10-10T22:53:10.429Z,7.40
2017-10-10T22:55:37.724Z,17.53
2017-10-10T22:58:04.988Z,11.10
2017-10-10T23:00:32.287Z,13.03
2017-10-10T23:02:59.591Z,7.80
2017-10-10T23:05:26.852Z,11.47
2017-10-10T23:07:54.110Z,10.90
2017-10-10T23:10:21.407Z,9.73
2017-10-10T23:12:48.697Z,8.60
2017-10-10T23:15:15.959Z,10.07
2017-10-10T23:17:43.247Z,13.40
2017-10-10T23:20:10.507Z,9.80
2017-10-10T23:22:37.807Z,12.80
2017-10-10T23:25:05.066Z,10.87
2017-10-10T23:27:32.358Z,12.83
2017-10-10T23:29:59.631Z,14.93
2017-10-10T23:32:26.899Z,10.80
2017-10-10T23:34:54.190Z,15.70
2017-10-10T23:37:21.499Z,10.70
2017-10-10T23:39:48.750Z,12.20
2017-10-10T23:42:16.060Z,13.10
2017-10-10T23:44:43.342Z,11.80
2017-10-10T23:47:10.606Z,12.80
2017-10-10T23:49:37.902Z,14.97
2017-10-10T23:52:05.163Z,9.60
2017-10-10T23:54:32.439Z,10.43
2017-10-10T23:56:59.739Z,18.23
2017-10-10T23:59:27.038Z,9.83
